Time;durP1;ratioP1;P1;durP2;ratioP2;P2;SDS_P1;SDS_P2;PMS_P1;PMS_P2;Temp;Humidity;BMP_temperature;BMP_pressure;BME280_temperature;BME280_humidity;BME280_pressure;Samples;Min_cycle;Max_cycle;Signal;HPM_P1;HPM_P2
2021/06/30 00:00:39;;;;;;;9.80;5.75;;;;;;;21.43;54.16;99575.34;1757197;81;21459;-69
2021/06/30 00:03:07;;;;;;;8.75;5.70;;;;;;;21.42;54.22;99573.16;1758487;81;21515;-69
2021/06/30 00:05:33;;;;;;;11.28;7.10;;;;;;;21.41;54.27;99575.59;1758593;80;21002;-69
2021/06/30 00:07:59;;;;;;;10.72;8.80;;;;;;;21.40;54.36;99565.80;1758250;80;21335;-69
2021/06/30 00:10:25;;;;;;;8.60;7.00;;;;;;;21.38;54.43;99565.27;1758052;81;21034;-69
2021/06/30 00:12:51;;;;;;;8.20;6.20;;;;;;;21.35;54.50;99558.47;1758116;81;21010;-69
2021/06/30 00:15:21;;;;;;;7.35;5.95;;;;;;;21.33;54.62;99555.18;1758412;80;21475;-69
2021/06/30 00:17:47;;;;;;;11.22;6.10;;;;;;;21.32;54.71;99548.11;1758281;81;20959;-69
2021/06/30 00:20:13;;;;;;;16.12;6.83;;;;;;;21.27;54.81;99544.03;1758518;81;21300;-71
2021/06/30 00:22:40;;;;;;;13.70;7.97;;;;;;;21.14;55.07;99547.19;1758619;80;20979;-71
2021/06/30 00:25:07;;;;;;;20.95;9.65;;;;;;;21.00;55.43;99556.80;1758008;81;21463;-71
2021/06/30 00:27:33;;;;;;;16.85;9.48;;;;;;;20.87;55.86;99562.09;1758049;81;21475;-72
2021/06/30 00:30:00;;;;;;;15.15;7.97;;;;;;;20.74;56.43;99568.48;1757488;81;20987;-71
2021/06/30 00:32:26;;;;;;;14.53;6.55;;;;;;;20.66;56.99;99583.83;1758399;81;21132;-71
2021/06/30 00:34:52;;;;;;;14.47;6.17;;;;;;;20.53;57.59;99597.78;1757696;80;21019;-71
2021/06/30 00:37:19;;;;;;;9.63;6.00;;;;;;;20.38;58.16;99590.30;1751955;80;20963;-71
2021/06/30 00:39:45;;;;;;;10.40;6.37;;;;;;;20.18;58.84;99583.27;1756850;81;21046;-71
2021/06/30 00:42:11;;;;;;;9.98;7.42;;;;;;;20.05;59.61;99593.95;1758178;80;21035;-71
2021/06/30 00:44:42;;;;;;;10.32;7.78;;;;;;;20.04;60.11;99584.18;1758442;80;21139;-71
2021/06/30 00:47:08;;;;;;;10.28;7.08;;;;;;;20.02;60.47;99605.25;1757525;81;21078;-71
2021/06/30 00:49:34;;;;;;;11.60;7.25;;;;;;;19.93;60.93;99590.53;1757898;81;21590;-71
2021/06/30 00:52:01;;;;;;;7.72;6.50;;;;;;;19.82;61.29;99583.33;1757105;81;21030;-71
2021/06/30 00:54:27;;;;;;;8.15;6.35;;;;;;;19.79;61.68;99587.90;1758125;80;21077;-71
2021/06/30 00:56:53;;;;;;;7.85;6.80;;;;;;;19.88;61.85;99606.69;1758249;81;21022;-71
2021/06/30 00:59:19;;;;;;;8.68;6.05;;;;;;;19.90;61.97;99609.45;1757812;81;20983;-71
2021/06/30 01:01:45;;;;;;;7.78;6.33;;;;;;;19.86;62.15;99589.89;1758334;80;21006;-71
2021/06/30 01:04:11;;;;;;;7.65;6.17;;;;;;;19.84;62.35;99581.22;1758377;81;21476;-71
2021/06/30 01:06:37;;;;;;;9.95;6.33;;;;;;;19.82;62.55;99569.80;1757242;80;21053;-72
2021/06/30 01:09:04;;;;;;;6.72;5.85;;;;;;;19.78;62.81;99575.42;1758823;81;21871;-72
2021/06/30 01:11:30;;;;;;;9.40;7.05;;;;;;;19.83;62.99;99575.51;1758751;81;20987;-71
2021/06/30 01:13:57;;;;;;;7.33;6.00;;;;;;;19.87;63.06;99578.00;1758712;81;21034;-72
2021/06/30 01:16:23;;;;;;;9.20;7.00;;;;;;;19.92;63.09;99575.34;1757256;81;21010;-72
2021/06/30 01:18:49;;;;;;;9.55;7.25;;;;;;;19.98;63.08;99580.31;1761428;81;21006;-72
2021/06/30 01:21:17;;;;;;;8.53;6.92;;;;;;;19.99;63.09;99575.98;1758706;80;21464;-70
2021/06/30 01:23:44;;;;;;;10.00;7.30;;;;;;;19.98;63.13;99563.54;1758901;80;21003;-70
2021/06/30 01:26:11;;;;;;;8.58;7.67;;;;;;;20.02;63.13;99566.00;1758501;81;21441;-70
2021/06/30 01:28:37;;;;;;;10.98;6.75;;;;;;;20.06;63.08;99556.84;1758413;81;20988;-70
2021/06/30 01:31:04;;;;;;;10.53;6.45;;;;;;;20.05;63.07;99551.16;1758643;80;20999;-70
2021/06/30 01:33:31;;;;;;;10.48;6.70;;;;;;;20.10;63.08;99542.56;1758226;81;21475;-70
2021/06/30 01:35:57;;;;;;;10.28;6.65;;;;;;;20.14;63.04;99554.52;1758401;81;21011;-70
2021/06/30 01:38:24;;;;;;;9.45;6.75;;;;;;;20.13;63.04;99548.81;1758542;81;21007;-70
2021/06/30 01:40:52;;;;;;;11.48;5.95;;;;;;;20.14;63.02;99553.17;1758674;81;21431;-70
2021/06/30 01:43:19;;;;;;;8.10;6.15;;;;;;;20.17;63.01;99554.02;1758691;81;21043;-70
2021/06/30 01:45:45;;;;;;;7.87;6.15;;;;;;;20.21;62.99;99540.26;1758753;81;21130;-70
2021/06/30 01:48:11;;;;;;;7.62;6.75;;;;;;;20.26;62.93;99534.91;1758400;81;21082;-70
2021/06/30 01:50:37;;;;;;;7.50;6.58;;;;;;;20.30;62.90;99527.92;1765466;81;21424;-70
2021/06/30 01:53:04;;;;;;;12.15;7.35;;;;;;;20.28;62.89;99523.84;1729316;81;21531;-70
2021/06/30 01:55:31;;;;;;;10.00;6.55;;;;;;;20.24;62.86;99523.50;1705962;83;21018;-70
2021/06/30 01:57:57;;;;;;;7.62;6.87;;;;;;;20.19;62.93;99528.87;1731177;82;21824;-70
2021/06/30 02:00:23;;;;;;;10.58;7.40;;;;;;;20.15;63.07;99521.50;1712330;83;20996;-70
2021/06/30 02:02:50;;;;;;;9.75;6.78;;;;;;;20.10;63.20;99519.55;1712570;83;21023;-70
2021/06/30 02:05:18;;;;;;;10.35;7.78;;;;;;;20.07;63.41;99527.36;1712426;83;21055;-70
2021/06/30 02:07:50;;;;;;;9.15;8.25;;;;;;;20.01;63.58;99515.66;1712526;83;21051;-69
2021/06/30 02:10:16;;;;;;;10.13;8.65;;;;;;;19.96;63.84;99510.17;1712109;83;21082;-70
2021/06/30 02:12:43;;;;;;;10.38;9.38;;;;;;;19.88;64.20;99503.31;1712430;83;21007;-70
2021/06/30 02:15:19;;;;;;;10.40;8.83;;;;;;;19.82;64.51;99500.80;1712420;83;21464;-69
2021/06/30 02:17:45;;;;;;;10.28;8.73;;;;;;;19.78;64.94;99498.31;1712418;83;21519;-69
2021/06/30 02:20:12;;;;;;;8.88;7.97;;;;;;;19.71;65.26;99493.09;1707436;83;21091;-69
2021/06/30 02:22:39;;;;;;;9.65;8.28;;;;;;;19.69;65.51;99490.36;1653169;86;21180;-69
2021/06/30 02:25:07;;;;;;;8.90;8.00;;;;;;;19.66;65.74;99474.11;1682944;84;21019;-69
2021/06/30 02:27:33;;;;;;;9.73;8.45;;;;;;;19.66;65.98;99467.87;1667140;85;21499;-70
2021/06/30 02:29:59;;;;;;;13.78;8.33;;;;;;;19.67;66.16;99456.78;1698319;84;21003;-69
2021/06/30 02:32:25;;;;;;;9.90;8.85;;;;;;;19.68;66.37;99456.25;1698839;83;21007;-70
2021/06/30 02:34:51;;;;;;;12.63;10.03;;;;;;;19.69;66.54;99447.08;1698384;84;21170;-70
2021/06/30 02:37:17;;;;;;;14.63;11.97;;;;;;;19.69;66.71;99437.08;1698463;84;21026;-69
2021/06/30 02:39:43;;;;;;;10.88;9.88;;;;;;;19.70;66.86;99436.55;1698610;84;20995;-69
2021/06/30 02:42:10;;;;;;;10.35;9.33;;;;;;;19.68;67.00;99423.79;1698392;84;21045;-70
2021/06/30 02:44:36;;;;;;;16.20;9.20;;;;;;;19.67;67.17;99429.73;1703239;82;21551;-70
2021/06/30 02:47:02;;;;;;;15.13;9.83;;;;;;;19.61;67.33;99431.28;1731265;82;21120;-70
2021/06/30 02:49:28;;;;;;;15.85;12.85;;;;;;;19.60;67.53;99425.61;1725824;82;21059;-70
2021/06/30 02:51:54;;;;;;;12.68;8.75;;;;;;;19.62;67.70;99416.69;1720395;83;21353;-70
2021/06/30 02:54:20;;;;;;;15.03;10.08;;;;;;;19.52;67.89;99431.45;1684518;83;20975;-70
2021/06/30 02:56:46;;;;;;;12.33;10.05;;;;;;;19.42;68.13;99410.52;1680462;85;21015;-70
2021/06/30 02:59:12;;;;;;;15.35;11.30;;;;;;;19.39;68.35;99408.25;1680696;85;21066;-70
2021/06/30 03:01:38;;;;;;;22.62;16.57;;;;;;;19.34;68.56;99400.92;1680338;85;20995;-69
2021/06/30 03:04:04;;;;;;;12.25;10.95;;;;;;;19.28;68.75;99410.01;1685076;83;21010;-70
2021/06/30 03:06:30;;;;;;;12.23;10.08;;;;;;;19.28;68.94;99406.52;1722066;83;21019;-69
2021/06/30 03:08:56;;;;;;;11.40;9.03;;;;;;;19.29;69.09;99407.59;1722008;83;21532;-70
2021/06/30 03:11:22;;;;;;;12.63;10.50;;;;;;;19.27;69.27;99423.27;1722077;83;21728;-70
2021/06/30 03:13:49;;;;;;;12.03;10.18;;;;;;;19.23;69.48;99432.11;1721517;83;20990;-70
2021/06/30 03:16:15;;;;;;;19.95;12.18;;;;;;;19.25;69.69;99434.84;1721975;83;21058;-70
2021/06/30 03:18:42;;;;;;;13.53;10.88;;;;;;;19.30;69.88;99438.98;1721836;83;20999;-70
2021/06/30 03:21:09;;;;;;;21.07;14.58;;;;;;;19.38;70.04;99455.31;1703699;82;21003;-69
2021/06/30 03:23:35;;;;;;;33.53;22.07;;;;;;;19.36;70.19;99469.06;1691598;84;21675;-70
2021/06/30 03:26:02;;;;;;;22.13;16.02;;;;;;;19.32;70.37;99485.50;1691339;84;21051;-69
2021/06/30 03:28:28;;;;;;;18.15;12.47;;;;;;;19.30;70.59;99517.39;1691566;84;21024;-69
2021/06/30 03:30:54;;;;;;;13.00;10.90;;;;;;;19.30;70.73;99516.04;1691357;84;21009;-70
2021/06/30 03:33:20;;;;;;;12.05;9.90;;;;;;;19.28;70.88;99511.39;1691581;84;21526;-70
2021/06/30 03:35:46;;;;;;;12.25;9.78;;;;;;;19.27;71.03;99513.02;1684430;83;21827;-69
2021/06/30 03:38:12;;;;;;;12.15;8.85;;;;;;;19.28;71.19;99512.75;1695309;83;21054;-70
2021/06/30 03:40:38;;;;;;;13.28;9.10;;;;;;;19.35;71.34;99521.50;1721709;82;21058;-70
2021/06/30 03:43:04;;;;;;;12.25;9.95;;;;;;;19.48;71.42;99516.33;1722164;83;21050;-69
2021/06/30 03:45:30;;;;;;;13.43;10.68;;;;;;;19.47;71.47;99519.27;1722246;82;20999;-70
2021/06/30 03:47:56;;;;;;;16.90;10.15;;;;;;;19.42;71.58;99515.42;1721617;83;21769;-69
2021/06/30 03:50:23;;;;;;;11.73;10.50;;;;;;;19.43;71.66;99507.59;1721595;81;21039;-69
2021/06/30 03:52:49;;;;;;;14.38;9.95;;;;;;;19.47;71.73;99509.80;1704432;83;21018;-69
2021/06/30 03:55:15;;;;;;;11.18;9.88;;;;;;;19.48;71.78;99508.74;1680190;85;21047;-69
2021/06/30 03:57:41;;;;;;;11.35;9.15;;;;;;;19.49;71.84;99506.33;1680336;85;21043;-69
2021/06/30 04:00:08;;;;;;;10.43;8.83;;;;;;;19.51;71.91;99506.36;1680324;85;21050;-70
2021/06/30 04:02:34;;;;;;;14.68;10.00;;;;;;;19.50;71.95;99522.30;1680270;85;21055;-69
2021/06/30 04:05:00;;;;;;;13.38;9.35;;;;;;;19.51;72.06;99535.28;1680487;85;21063;-69
2021/06/30 04:07:26;;;;;;;12.47;9.08;;;;;;;19.59;72.11;99536.22;1680582;85;21019;-69
2021/06/30 04:09:52;;;;;;;12.95;8.83;;;;;;;19.57;72.16;99538.34;1680049;85;21071;-69
2021/06/30 04:12:21;;;;;;;13.30;8.88;;;;;;;19.57;72.25;99532.92;1680319;85;21184;-69
2021/06/30 04:14:46;;;;;;;12.63;10.08;;;;;;;19.57;72.33;99524.28;1680186;85;21460;-69
2021/06/30 04:17:12;;;;;;;15.43;10.38;;;;;;;19.55;72.40;99514.79;1680293;85;21584;-69
2021/06/30 04:19:38;;;;;;;14.23;10.58;;;;;;;19.54;72.49;99503.67;1684997;83;21046;-70
2021/06/30 04:22:05;;;;;;;13.53;10.60;;;;;;;19.58;72.54;99500.77;1721832;83;21058;-69
2021/06/30 04:24:31;;;;;;;15.43;11.05;;;;;;;19.60;72.56;99490.53;1721841;82;21071;-69
2021/06/30 04:26:57;;;;;;;12.15;10.63;;;;;;;19.60;72.60;99490.53;1721771;82;21113;-69
2021/06/30 04:29:23;;;;;;;17.50;10.45;;;;;;;19.56;72.67;99488.03;1717732;83;21531;-69
2021/06/30 04:31:50;;;;;;;19.02;12.07;;;;;;;19.55;72.77;99485.03;1720217;83;21023;-69
2021/06/30 04:34:16;;;;;;;14.38;11.63;;;;;;;19.58;72.82;99494.00;1720088;83;21066;-69
2021/06/30 04:36:42;;;;;;;19.10;13.65;;;;;;;19.55;72.88;99498.56;1720118;83;21154;-69
2021/06/30 04:39:08;;;;;;;19.12;10.88;;;;;;;19.53;72.97;99503.41;1720211;83;20996;-69
2021/06/30 04:41:34;;;;;;;14.58;11.53;;;;;;;19.44;73.11;99505.19;1720210;83;21066;-69
2021/06/30 04:44:00;;;;;;;14.00;11.60;;;;;;;19.38;73.26;99496.70;1720111;83;21003;-69
2021/06/30 04:46:26;;;;;;;15.38;12.00;;;;;;;19.32;73.42;99491.44;1720294;83;21007;-69
2021/06/30 04:48:52;;;;;;;15.45;12.95;;;;;;;19.28;73.50;99484.36;1720257;83;21169;-69
2021/06/30 04:51:18;;;;;;;19.55;14.50;;;;;;;19.25;73.60;99475.39;1720073;82;21474;-69
2021/06/30 04:56:26;;;;;;;15.18;13.58;;;;;;;19.16;73.84;99473.38;1701506;82;20983;-69
2021/06/30 04:58:47;;;;;;;16.55;12.98;;;;;;;19.15;73.95;99469.02;1737997;82;21056;-69
2021/06/30 05:01:13;;;;;;;18.50;13.62;;;;;;;19.14;74.04;99475.52;1739035;82;21180;-69
2021/06/30 05:03:39;;;;;;;24.90;13.58;;;;;;;19.13;74.17;99473.34;1739516;82;20943;-69
2021/06/30 05:06:05;;;;;;;20.62;13.85;;;;;;;19.16;74.31;99476.90;1739015;82;21529;-69
2021/06/30 05:08:31;;;;;;;15.63;12.98;;;;;;;19.29;74.41;99481.95;1738560;81;21566;-69
2021/06/30 05:10:57;;;;;;;18.87;13.03;;;;;;;19.41;74.55;99478.64;1739085;82;21537;-69
2021/06/30 05:13:23;;;;;;;16.87;13.15;;;;;;;19.49;74.61;99490.10;1738463;82;21876;-69
2021/06/30 05:15:49;;;;;;;15.40;12.47;;;;;;;19.56;74.69;99486.68;1738802;82;21055;-69
2021/06/30 05:18:16;;;;;;;19.15;13.43;;;;;;;19.65;74.74;99482.46;1740734;82;21038;-69
2021/06/30 05:20:42;;;;;;;20.40;13.75;;;;;;;19.72;74.76;99480.39;1742406;82;20967;-69
2021/06/30 05:23:08;;;;;;;16.10;14.53;;;;;;;19.81;74.77;99479.69;1742093;82;21006;-69
2021/06/30 05:25:34;;;;;;;20.80;15.35;;;;;;;19.91;74.77;99477.66;1742193;82;21505;-69
2021/06/30 05:28:00;;;;;;;26.27;16.12;;;;;;;20.02;74.78;99483.44;1742115;82;21030;-70
2021/06/30 05:30:27;;;;;;;19.57;14.28;;;;;;;20.18;74.75;99490.67;1739467;81;20987;-69
2021/06/30 05:32:53;;;;;;;14.60;12.58;;;;;;;20.44;74.67;99493.16;1739137;82;21069;-69
2021/06/30 05:35:19;;;;;;;16.20;12.95;;;;;;;20.62;74.52;99498.73;1739301;82;21262;-69
2021/06/30 05:37:45;;;;;;;16.23;12.15;;;;;;;20.69;74.44;99502.84;1739224;82;21069;-69
2021/06/30 05:40:11;;;;;;;17.02;13.88;;;;;;;20.70;74.38;99503.66;1738973;82;20998;-70
2021/06/30 05:42:38;;;;;;;15.85;14.23;;;;;;;20.72;74.30;99512.38;1739591;82;21554;-69
2021/06/30 05:45:07;;;;;;;16.73;14.95;;;;;;;20.69;74.23;99508.83;1739400;82;21018;-69
2021/06/30 05:47:33;;;;;;;20.20;15.07;;;;;;;20.72;74.17;99515.08;1739294;81;21044;-69
2021/06/30 05:49:59;;;;;;;26.97;15.68;;;;;;;20.78;74.07;99507.27;1739326;82;21025;-69
2021/06/30 05:52:25;;;;;;;18.80;15.48;;;;;;;20.94;74.03;99505.77;1739361;82;20994;-70
2021/06/30 05:54:51;;;;;;;17.57;15.55;;;;;;;21.29;73.91;99505.24;1747035;81;20948;-70
2021/06/30 05:57:17;;;;;;;18.00;14.73;;;;;;;21.62;73.74;99505.98;1755546;81;21738;-70
2021/06/30 05:59:43;;;;;;;21.55;13.80;;;;;;;21.53;73.50;99507.57;1755710;81;21561;-69
2021/06/30 06:02:09;;;;;;;15.65;12.88;;;;;;;21.35;73.36;99508.82;1755176;81;21751;-69
2021/06/30 06:04:35;;;;;;;16.30;14.63;;;;;;;21.34;73.30;99507.17;1757081;81;21032;-69
2021/06/30 06:07:02;;;;;;;16.50;14.78;;;;;;;21.27;73.21;99504.70;1760912;81;21016;-69
2021/06/30 06:09:28;;;;;;;18.52;15.88;;;;;;;21.13;73.07;99507.59;1777854;80;21014;-70
2021/06/30 06:11:54;;;;;;;16.02;14.43;;;;;;;21.06;72.99;99505.60;1761251;81;21020;-69
2021/06/30 06:14:20;;;;;;;17.37;14.68;;;;;;;20.97;72.88;99501.72;1773263;80;21909;-69
2021/06/30 06:16:46;;;;;;;16.97;15.32;;;;;;;20.83;72.77;99504.59;1769732;80;21001;-69
2021/06/30 06:19:12;;;;;;;16.60;14.93;;;;;;;20.72;72.71;99508.31;1761066;81;20974;-69
2021/06/30 06:21:38;;;;;;;16.87;15.13;;;;;;;20.60;72.69;99511.70;1761198;81;20954;-69
2021/06/30 06:24:04;;;;;;;17.52;14.75;;;;;;;20.51;72.74;99510.02;1761181;81;20985;-69
2021/06/30 06:26:30;;;;;;;16.90;15.03;;;;;;;20.42;72.77;99510.17;1761162;81;21174;-70
2021/06/30 06:28:56;;;;;;;22.80;16.17;;;;;;;20.30;72.85;99513.59;1761010;81;20986;-69
2021/06/30 06:31:22;;;;;;;21.00;17.30;;;;;;;20.27;72.97;99516.75;1761114;81;20962;-69
2021/06/30 06:33:48;;;;;;;19.35;16.87;;;;;;;20.17;72.99;99509.34;1761231;81;21489;-69
2021/06/30 06:36:14;;;;;;;18.62;16.82;;;;;;;20.06;73.05;99511.64;1761222;81;21251;-69
2021/06/30 06:38:40;;;;;;;20.65;18.23;;;;;;;19.99;73.11;99515.08;1761265;81;21130;-69
2021/06/30 06:41:06;;;;;;;19.62;17.25;;;;;;;19.99;73.20;99516.44;1760182;81;20977;-69
2021/06/30 06:43:34;;;;;;;19.62;17.52;;;;;;;19.98;73.29;99514.82;1755773;81;21010;-70
2021/06/30 06:46:00;;;;;;;19.30;17.30;;;;;;;19.97;73.37;99519.12;1760922;81;20977;-69
2021/06/30 06:48:26;;;;;;;17.57;15.88;;;;;;;19.96;73.50;99516.94;1758577;81;21030;-69
2021/06/30 06:50:52;;;;;;;18.25;16.40;;;;;;;20.06;73.58;99515.70;1755581;81;21050;-69
2021/06/30 06:53:18;;;;;;;17.40;15.75;;;;;;;20.12;73.63;99510.66;1759270;81;20966;-69
2021/06/30 06:55:44;;;;;;;18.92;16.93;;;;;;;20.15;73.68;99512.03;1760756;81;20983;-69
2021/06/30 06:58:10;;;;;;;18.57;16.77;;;;;;;20.22;73.72;99516.18;1760888;80;21058;-69
2021/06/30 07:00:37;;;;;;;19.17;17.20;;;;;;;20.16;73.66;99507.69;1784432;80;21031;-71
2021/06/30 07:03:03;;;;;;;19.37;16.77;;;;;;;20.08;73.72;99514.11;1755414;80;21146;-71
2021/06/30 07:05:29;;;;;;;17.70;15.75;;;;;;;20.04;73.72;99500.27;1734286;80;21392;-71
2021/06/30 07:07:55;;;;;;;17.50;15.80;;;;;;;20.06;73.75;99500.81;1756336;80;21034;-71
2021/06/30 07:10:21;;;;;;;18.45;15.53;;;;;;;20.03;73.74;99495.91;1754934;80;21012;-71
2021/06/30 07:12:47;;;;;;;17.52;15.23;;;;;;;20.00;73.76;99497.78;1758643;80;21015;-71
2021/06/30 07:15:13;;;;;;;16.65;14.98;;;;;;;19.95;73.81;99495.82;1752436;80;21544;-71
2021/06/30 07:17:39;;;;;;;17.37;15.58;;;;;;;19.91;73.91;99492.55;1755051;80;21042;-71
2021/06/30 07:20:07;;;;;;;17.65;15.20;;;;;;;19.86;73.95;99489.77;1741864;80;20982;-71
2021/06/30 07:22:33;;;;;;;17.90;15.90;;;;;;;19.82;73.99;99483.21;1742543;80;21249;-71
2021/06/30 07:24:59;;;;;;;18.60;15.45;;;;;;;19.88;74.04;99481.66;1749323;80;20983;-70
2021/06/30 07:27:25;;;;;;;18.23;16.17;;;;;;;19.92;74.05;99493.62;1738336;81;21526;-71
2021/06/30 07:29:51;;;;;;;17.30;14.63;;;;;;;19.92;74.08;99504.98;1734269;81;21009;-71
2021/06/30 07:32:17;;;;;;;17.57;15.15;;;;;;;19.85;74.13;99521.94;1730608;80;20997;-71
2021/06/30 07:34:43;;;;;;;19.55;17.35;;;;;;;19.78;74.19;99523.48;1760788;80;21088;-71
2021/06/30 07:37:09;;;;;;;18.05;16.20;;;;;;;19.80;74.27;99538.13;1750994;80;21041;-71
2021/06/30 07:39:35;;;;;;;20.32;16.77;;;;;;;19.78;74.35;99547.84;1758474;80;21054;-71
2021/06/30 07:42:02;;;;;;;31.15;17.77;;;;;;;19.74;74.43;99547.23;1753026;80;21009;-72
2021/06/30 07:44:28;;;;;;;14.93;6.58;;;;;;;19.56;74.53;99548.89;1759352;80;21053;-75
2021/06/30 07:46:54;;;;;;;15.30;5.25;;;;;;;19.37;74.67;99530.20;1755821;80;21024;-77
2021/06/30 07:49:20;;;;;;;12.15;6.70;;;;;;;19.24;74.86;99535.96;1745554;80;21624;-77
2021/06/30 07:51:46;;;;;;;10.82;8.35;;;;;;;19.11;75.04;99537.63;1758382;80;21810;-77
2021/06/30 07:54:12;;;;;;;8.78;6.87;;;;;;;19.09;75.17;99546.52;1743088;80;21017;-77
2021/06/30 07:56:38;;;;;;;4.08;3.35;;;;;;;19.03;75.33;99543.47;1749494;81;21053;-76
2021/06/30 07:59:09;;;;;;;6.87;3.83;;;;;;;18.92;75.47;99543.00;1760474;80;21541;-77
2021/06/30 08:01:35;;;;;;;5.37;3.12;;;;;;;18.79;75.70;99541.42;1758832;80;21557;-77
2021/06/30 08:04:01;;;;;;;6.87;3.00;;;;;;;18.75;75.90;99542.17;1759159;80;21503;-76
2021/06/30 08:06:28;;;;;;;2.90;2.12;;;;;;;18.70;76.07;99547.47;1766785;80;21030;-77
2021/06/30 08:08:54;;;;;;;2.25;1.60;;;;;;;18.66;76.34;99547.67;1761650;81;21037;-77
2021/06/30 08:11:23;;;;;;;4.25;1.70;;;;;;;18.62;76.52;99548.69;1760785;81;21049;-77
2021/06/30 08:13:48;;;;;;;1.92;1.60;;;;;;;18.59;76.69;99551.05;1760389;80;21073;-77
2021/06/30 08:16:14;;;;;;;3.87;1.62;;;;;;;18.54;76.89;99554.50;1758423;80;21550;-77
2021/06/30 08:18:40;;;;;;;2.87;1.30;;;;;;;18.54;77.06;99561.78;1763498;80;20982;-77
2021/06/30 08:21:06;;;;;;;1.35;1.25;;;;;;;18.52;77.21;99565.23;1761743;80;21014;-77
2021/06/30 08:23:32;;;;;;;1.72;1.17;;;;;;;18.46;77.39;99569.17;1760848;80;21011;-77
2021/06/30 08:25:58;;;;;;;1.82;0.90;;;;;;;18.48;77.53;99571.09;1759214;80;21082;-77
2021/06/30 08:28:25;;;;;;;3.45;1.07;;;;;;;18.51;77.67;99574.41;1756474;80;21112;-77
2021/06/30 08:30:52;;;;;;;1.27;0.93;;;;;;;18.54;77.82;99573.93;1759983;80;21039;-76
2021/06/30 08:33:18;;;;;;;1.87;1.37;;;;;;;18.57;77.95;99577.49;1763565;80;21033;-78
2021/06/30 08:35:44;;;;;;;1.40;1.30;;;;;;;18.70;78.11;99579.89;1756907;80;20998;-78
2021/06/30 08:38:10;;;;;;;1.42;1.22;;;;;;;18.96;78.22;99581.99;1758117;80;21022;-77
2021/06/30 08:40:37;;;;;;;2.52;1.05;;;;;;;19.19;78.24;99581.83;1758323;80;21900;-78
2021/06/30 08:43:07;;;;;;;3.35;2.10;;;;;;;19.19;78.28;99589.94;1763444;79;21051;-77
2021/06/30 08:45:36;;;;;;;1.62;1.35;;;;;;;19.16;78.37;99592.31;1758613;79;21046;-77
2021/06/30 08:48:02;;;;;;;1.50;1.15;;;;;;;19.17;78.45;99594.78;1758285;81;21109;-77
2021/06/30 08:50:29;;;;;;;2.27;1.10;;;;;;;19.28;78.51;99591.16;1757959;80;21002;-77
2021/06/30 08:52:55;;;;;;;1.65;1.20;;;;;;;19.59;78.55;99593.84;1720075;81;21571;-77
2021/06/30 08:55:21;;;;;;;2.40;1.87;;;;;;;19.69;78.42;99594.52;1754884;80;21037;-77
2021/06/30 08:57:48;;;;;;;3.05;1.82;;;;;;;19.72;78.40;99596.20;1721128;82;21067;-77
2021/06/30 09:00:15;;;;;;;6.20;1.70;;;;;;;19.71;78.37;99600.48;1735955;82;21003;-77
2021/06/30 09:02:47;;;;;;;1.72;1.57;;;;;;;19.56;78.30;99607.05;1708939;83;21492;-77
2021/06/30 09:05:35;;;;;;;1.65;1.37;;;;;;;19.53;78.33;99607.55;1736925;82;21843;-76
2021/06/30 09:07:43;;;;;;;1.47;1.37;;;;;;;19.51;78.24;99615.08;1714690;82;21041;-77
2021/06/30 09:10:34;;;;;;;7.03;4.08;;;;;;;19.40;78.20;99617.59;1737492;82;21656;-77
2021/06/30 09:13:00;;;;;;;1.77;1.50;;;;;;;19.29;78.15;99627.95;1737333;82;21070;-77
2021/06/30 09:15:31;;;;;;;1.50;1.40;;;;;;;19.16;78.19;99629.63;1709267;83;21050;-77
2021/06/30 09:17:54;;;;;;;4.28;1.87;;;;;;;18.99;78.22;99632.02;1708796;83;21135;-78
2021/06/30 09:20:20;;;;;;;2.33;1.60;;;;;;;18.92;78.27;99632.17;1677710;85;21644;-78
2021/06/30 09:22:50;;;;;;;1.98;1.37;;;;;;;18.89;78.31;99629.96;1678558;85;21058;-78
2021/06/30 09:25:39;;;;;;;4.15;1.52;;;;;;;18.81;78.32;99627.64;1673909;84;21651;-77
2021/06/30 09:28:19;;;;;;;3.30;2.27;;;;;;;18.78;78.35;99630.83;1736618;82;21077;-77
2021/06/30 09:31:02;;;;;;;3.70;2.08;;;;;;;18.71;78.40;99634.21;1727675;82;21260;-77
2021/06/30 09:33:51;;;;;;;4.92;2.02;;;;;;;18.68;78.50;99630.64;1732997;82;21488;-77
2021/06/30 09:36:19;;;;;;;2.25;2.05;;;;;;;18.68;78.58;99640.10;1705796;82;22206;-77
2021/06/30 09:38:45;;;;;;;2.60;2.40;;;;;;;18.69;78.66;99634.97;1731422;82;21427;-77
2021/06/30 09:41:27;;;;;;;2.70;2.25;;;;;;;18.79;78.76;99635.98;1735857;82;21093;-77
2021/06/30 09:44:12;;;;;;;3.20;1.90;;;;;;;19.03;78.80;99634.00;1736337;82;21143;-76
2021/06/30 09:46:42;;;;;;;2.47;1.87;;;;;;;19.13;78.79;99639.58;1735536;82;21073;-77
2021/06/30 09:49:14;;;;;;;4.53;2.35;;;;;;;19.18;78.82;99642.36;1736120;82;21400;-77
2021/06/30 09:51:42;;;;;;;3.75;2.40;;;;;;;19.30;78.85;99634.18;1734375;82;21073;-77
2021/06/30 09:54:14;;;;;;;5.70;4.67;;;;;;;19.57;78.88;99637.06;1736259;82;21017;-78
2021/06/30 09:56:56;;;;;;;2.67;2.17;;;;;;;19.81;78.82;99631.75;1735599;81;21211;-77
2021/06/30 09:59:27;;;;;;;3.50;2.58;;;;;;;19.98;78.75;99642.03;1735405;81;21007;-77
2021/06/30 10:02:00;;;;;;;3.42;2.40;;;;;;;20.41;78.69;99630.42;1735627;82;21598;-73
2021/06/30 10:04:39;;;;;;;4.53;3.62;;;;;;;20.51;78.42;99637.88;1735874;81;21540;-74
2021/06/30 10:07:13;;;;;;;2.27;1.95;;;;;;;20.38;78.31;99636.34;1712037;81;21656;-73
2021/06/30 10:09:49;;;;;;;3.65;2.33;;;;;;;20.17;78.26;99650.13;1733687;81;21190;-73
2021/06/30 10:12:24;;;;;;;3.75;2.20;;;;;;;20.10;78.22;99642.73;1736210;81;21902;-73
2021/06/30 10:14:51;;;;;;;3.98;2.60;;;;;;;20.08;78.16;99646.77;1681683;83;21620;-73
2021/06/30 10:17:17;;;;;;;2.45;2.00;;;;;;;19.98;78.05;99650.16;1689247;83;21034;-74
2021/06/30 10:19:46;;;;;;;6.30;2.80;;;;;;;19.94;77.97;99651.72;1728977;82;21054;-73
2021/06/30 10:22:13;;;;;;;7.12;2.80;;;;;;;19.86;77.86;99650.78;1727943;82;21914;-73
2021/06/30 10:24:39;;;;;;;3.45;2.20;;;;;;;19.88;77.83;99658.10;1716350;81;21072;-73
2021/06/30 10:27:07;;;;;;;3.00;2.70;;;;;;;20.14;77.79;99653.34;1735778;81;21008;-74
2021/06/30 10:29:35;;;;;;;2.75;2.30;;;;;;;20.35;77.61;99663.94;1726339;81;21615;-74
2021/06/30 10:32:05;;;;;;;4.40;2.60;;;;;;;20.33;77.32;99664.20;1740364;81;21051;-74
2021/06/30 10:34:38;;;;;;;4.05;2.10;;;;;;;20.27;77.19;99659.77;1736202;82;21757;-75
2021/06/30 10:37:27;;;;;;;6.60;2.20;;;;;;;20.28;77.12;99664.66;1736204;82;21107;-75
2021/06/30 10:40:12;;;;;;;5.22;2.22;;;;;;;20.49;77.01;99670.63;1736558;81;21000;-75
2021/06/30 10:42:43;;;;;;;6.50;1.90;;;;;;;20.70;76.81;99666.26;1736514;82;21044;-75
2021/06/30 10:45:21;;;;;;;2.00;1.80;;;;;;;20.85;76.61;99674.03;1736990;82;20988;-75
2021/06/30 10:48:03;;;;;;;3.50;2.22;;;;;;;20.86;76.43;99678.36;1736462;82;21711;-74
2021/06/30 10:50:43;;;;;;;1.55;1.40;;;;;;;20.83;76.19;99684.30;1736950;82;20999;-74
2021/06/30 10:53:15;;;;;;;;;;;;;;;20.80;75.91;99683.98;1739527;82;21024;-74
2021/06/30 10:55:48;;;;;;;1.50;1.40;;;;;;;20.74;75.77;99680.94;1736642;82;20450;-74
2021/06/30 10:58:20;;;;;;;4.67;1.70;;;;;;;20.83;75.66;99683.47;1778433;79;21572;-75
2021/06/30 11:01:01;;;;;;;1.77;1.50;;;;;;;21.06;75.51;99689.98;1748178;81;21268;-75
2021/06/30 11:03:34;;;;;;;1.50;1.40;;;;;;;21.46;75.28;99677.91;1779530;79;21398;-74
2021/06/30 11:06:20;;;;;;;1.47;1.37;;;;;;;21.74;74.96;99692.53;1802274;79;21005;-74
2021/06/30 11:09:00;;;;;;;2.00;1.30;;;;;;;21.72;74.55;99687.88;1801863;79;21037;-75
2021/06/30 11:11:34;;;;;;;4.78;1.50;;;;;;;21.93;74.39;99685.62;1772543;81;21024;-75
2021/06/30 11:14:08;;;;;;;4.58;1.02;;;;;;;22.13;74.04;99683.59;1740129;82;22520;-75
2021/06/30 11:16:46;;;;;;;3.20;1.05;;;;;;;22.41;73.81;99682.64;1772019;81;20985;-74
2021/06/30 11:19:20;;;;;;;3.05;1.17;;;;;;;22.42;73.21;99683.46;1802292;79;21014;-75
2021/06/30 11:21:57;;;;;;;4.65;1.22;;;;;;;22.27;72.67;99680.13;1772489;81;21000;-75
2021/06/30 11:24:49;;;;;;;1.72;1.47;;;;;;;22.36;72.37;99679.91;1772327;81;21540;-74
2021/06/30 11:27:22;;;;;;;3.05;1.50;;;;;;;22.35;71.95;99682.34;1802109;79;21575;-74
2021/06/30 11:29:59;;;;;;;5.90;1.20;;;;;;;22.31;71.48;99690.74;1801790;79;20986;-74
2021/06/30 11:32:40;;;;;;;3.05;2.20;;;;;;;21.90;70.97;99690.22;1802405;79;21288;-74